Time;durP1;ratioP1;P1;durP2;ratioP2;P2;SDS_P1;SDS_P2;PMS_P1;PMS_P2;Temp;Humidity;BMP_temperature;BMP_pressure;BME280_temperature;BME280_humidity;BME280_pressure;Samples;Min_cycle;Max_cycle;Signal;HPM_P1;HPM_P2
2021/10/06 00:00:37;;;;;;;5.47;1.80;;;18.40;54.50;;;;;;5082502;28;20195;-46
2021/10/06 00:03:02;;;;;;;3.13;1.10;;;18.20;55.00;;;;;;5085697;28;20207;-51
2021/10/06 00:05:28;;;;;;;2.83;1.20;;;18.20;55.10;;;;;;5089979;28;20685;-48
2021/10/06 00:07:54;;;;;;;4.10;1.17;;;18.10;55.30;;;;;;5086098;28;20205;-45
2021/10/06 00:10:19;;;;;;;2.90;1.53;;;18.00;55.50;;;;;;5083412;28;20231;-44
2021/10/06 00:12:45;;;;;;;1.00;0.80;;;18.10;55.50;;;;;;5078231;28;20596;-48
2021/10/06 00:15:12;;;;;;;1.53;1.20;;;18.20;55.40;;;;;;5088641;28;20195;-47
2021/10/06 00:17:40;;;;;;;3.80;1.83;;;18.20;55.30;;;;;;5085332;28;20199;-45
2021/10/06 00:20:07;;;;;;;2.67;1.37;;;18.20;55.20;;;;;;5078933;28;20450;-45
2021/10/06 00:22:33;;;;;;;1.13;1.03;;;18.20;55.20;;;;;;5085557;28;20443;-50
2021/10/06 00:24:58;;;;;;;1.17;1.07;;;18.20;55.30;;;;;;5088542;28;20445;-45
2021/10/06 00:27:24;;;;;;;3.47;1.23;;;18.10;55.20;;;;;;5079361;28;20298;-46
2021/10/06 00:29:49;;;;;;;2.20;1.07;;;18.20;55.40;;;;;;5091254;28;20239;-45
2021/10/06 00:32:15;;;;;;;1.63;1.03;;;18.20;55.50;;;;;;5089576;28;20191;-46
2021/10/06 00:34:41;;;;;;;1.27;1.17;;;18.20;55.60;;;;;;5088440;28;20221;-47
2021/10/06 00:37:06;;;;;;;3.23;1.87;;;18.20;55.50;;;;;;5082140;28;20190;-48
2021/10/06 00:39:32;;;;;;;1.60;1.13;;;18.30;55.60;;;;;;5087991;28;20285;-47
2021/10/06 00:41:58;;;;;;;2.47;1.20;;;18.30;55.70;;;;;;5081198;28;20445;-45
2021/10/06 00:44:24;;;;;;;2.67;1.10;;;18.20;55.80;;;;;;5084412;28;20244;-46
2021/10/06 00:46:50;;;;;;;0.70;0.70;;;18.20;55.50;;;;;;5079150;28;20245;-46
2021/10/06 00:49:17;;;;;;;1.90;0.67;;;18.10;55.80;;;;;;5077666;28;20915;-45
2021/10/06 00:51:43;;;;;;;2.13;0.83;;;18.00;55.80;;;;;;5081033;28;20445;-45
2021/10/06 00:54:09;;;;;;;3.13;1.33;;;18.00;56.00;;;;;;5085278;28;20462;-46
2021/10/06 00:56:35;;;;;;;1.60;0.90;;;18.10;56.40;;;;;;5083215;28;20441;-45
2021/10/06 00:59:02;;;;;;;1.30;0.83;;;18.10;56.30;;;;;;5080274;28;20188;-47
2021/10/06 01:01:27;;;;;;;1.67;1.07;;;18.20;56.20;;;;;;5080939;28;20461;-46
2021/10/06 01:03:53;;;;;;;3.00;1.40;;;18.20;56.40;;;;;;5075786;28;20512;-47
2021/10/06 01:06:19;;;;;;;1.20;1.10;;;18.00;56.10;;;;;;5074546;28;20279;-45
2021/10/06 01:08:44;;;;;;;5.80;1.20;;;18.00;56.40;;;;;;5084585;28;20617;-47
2021/10/06 01:11:11;;;;;;;6.20;1.27;;;17.90;56.60;;;;;;5087801;28;20265;-45
2021/10/06 01:13:37;;;;;;;2.10;1.03;;;17.90;56.50;;;;;;5080117;28;20316;-45
2021/10/06 01:16:04;;;;;;;1.80;1.13;;;18.00;56.50;;;;;;5080493;28;20433;-49
2021/10/06 01:18:30;;;;;;;2.03;1.27;;;18.00;56.50;;;;;;5089019;28;21003;-46
2021/10/06 01:20:56;;;;;;;5.00;2.00;;;17.90;56.50;;;;;;5084542;28;20541;-47
2021/10/06 01:23:21;;;;;;;4.80;1.10;;;18.00;56.70;;;;;;5074401;28;20207;-45
2021/10/06 01:25:47;;;;;;;1.00;0.80;;;18.00;56.40;;;;;;5077181;28;20203;-48
2021/10/06 01:28:13;;;;;;;2.13;1.17;;;18.10;56.30;;;;;;5074430;28;20709;-49
2021/10/06 01:30:38;;;;;;;2.60;1.00;;;18.00;56.00;;;;;;5076314;28;20291;-50
2021/10/06 01:33:04;;;;;;;2.10;1.20;;;18.00;56.20;;;;;;5082963;28;20195;-45
2021/10/06 01:35:30;;;;;;;1.00;0.90;;;18.00;55.90;;;;;;5085924;28;20188;-46
2021/10/06 01:37:56;;;;;;;4.27;1.10;;;18.00;56.00;;;;;;5077995;28;20700;-46
2021/10/06 01:40:22;;;;;;;1.43;1.00;;;18.00;56.20;;;;;;5080700;28;20207;-48
2021/10/06 01:42:49;;;;;;;2.90;1.10;;;18.00;56.10;;;;;;5080791;28;20256;-45
2021/10/06 01:45:26;;;;;;;1.07;0.97;;;18.00;56.10;;;;;;5075767;28;20497;-47
2021/10/06 01:47:53;;;;;;;2.10;1.00;;;18.00;56.20;;;;;;5074834;28;20434;-45
2021/10/06 01:50:26;;;;;;;2.40;1.00;;;18.00;56.00;;;;;;5072656;28;20540;-46
2021/10/06 01:52:53;;;;;;;3.03;0.90;;;17.90;56.20;;;;;;5081733;28;20488;-48
2021/10/06 01:55:38;;;;;;;1.90;1.03;;;17.80;56.40;;;;;;5077185;28;20446;-45
2021/10/06 01:58:09;;;;;;;3.07;0.90;;;17.80;56.40;;;;;;5077425;28;20956;-46
2021/10/06 02:00:36;;;;;;;3.40;1.17;;;17.80;56.60;;;;;;5076436;28;20433;-48
2021/10/06 02:03:01;;;;;;;1.50;0.90;;;17.80;56.60;;;;;;5075217;28;20446;-46
2021/10/06 02:05:27;;;;;;;2.80;1.40;;;17.70;56.50;;;;;;5078714;28;20446;-48
2021/10/06 02:07:53;;;;;;;2.30;0.90;;;17.70;56.70;;;;;;5077136;28;20553;-47
2021/10/06 02:10:21;;;;;;;2.20;1.10;;;17.60;56.80;;;;;;5075789;28;20331;-45
2021/10/06 02:12:46;;;;;;;6.67;1.10;;;17.70;56.90;;;;;;5088673;28;20516;-49
2021/10/06 02:15:12;;;;;;;2.00;0.83;;;17.70;56.80;;;;;;5084711;28;20532;-45
2021/10/06 02:17:38;;;;;;;1.87;1.30;;;17.70;57.20;;;;;;5083499;28;20726;-48
2021/10/06 02:20:04;;;;;;;6.20;1.10;;;17.70;56.90;;;;;;5074103;28;20194;-47
2021/10/06 02:22:30;;;;;;;1.37;1.00;;;17.80;57.40;;;;;;5082690;28;20612;-47
2021/10/06 02:24:56;;;;;;;2.40;1.33;;;17.90;57.10;;;;;;5083746;28;20442;-46
2021/10/06 02:27:22;;;;;;;5.40;1.10;;;17.90;56.80;;;;;;5081784;28;20191;-48
2021/10/06 02:29:48;;;;;;;3.30;0.90;;;17.90;56.70;;;;;;5081115;28;20984;-49
2021/10/06 02:32:13;;;;;;;2.10;0.83;;;17.80;56.80;;;;;;5083608;28;20783;-45
2021/10/06 02:34:39;;;;;;;4.93;0.90;;;17.80;56.90;;;;;;5081451;28;20200;-50
2021/10/06 02:37:05;;;;;;;1.23;1.00;;;17.80;56.80;;;;;;5083044;28;20665;-48
2021/10/06 02:39:30;;;;;;;1.17;0.83;;;17.80;56.80;;;;;;5083138;28;20183;-45
2021/10/06 02:41:56;;;;;;;0.90;0.73;;;17.80;56.80;;;;;;5078657;28;20196;-48
2021/10/06 02:44:22;;;;;;;6.60;1.83;;;17.80;56.70;;;;;;5076142;28;20199;-47
2021/10/06 02:46:48;;;;;;;2.20;0.97;;;17.80;56.80;;;;;;5080165;28;20192;-48
2021/10/06 02:49:13;;;;;;;6.27;1.27;;;17.80;57.20;;;;;;5074914;28;20673;-47
2021/10/06 02:51:39;;;;;;;6.40;0.93;;;17.80;56.90;;;;;;5087904;28;20481;-48
2021/10/06 02:54:05;;;;;;;2.10;1.10;;;17.60;56.70;;;;;;5073911;28;20298;-47
2021/10/06 02:56:30;;;;;;;2.00;0.87;;;17.60;56.90;;;;;;5082042;28;20195;-48
2021/10/06 02:58:56;;;;;;;3.00;1.07;;;17.60;56.80;;;;;;5082144;28;20199;-49
2021/10/06 03:01:21;;;;;;;2.10;1.27;;;17.50;57.20;;;;;;5076926;28;20195;-46
2021/10/06 03:03:47;;;;;;;1.90;1.07;;;17.30;57.30;;;;;;5080585;28;20187;-47
2021/10/06 03:06:12;;;;;;;1.07;0.90;;;17.20;57.40;;;;;;5078591;28;20192;-45
2021/10/06 03:08:38;;;;;;;2.40;1.10;;;17.20;57.60;;;;;;5075755;28;20210;-46
2021/10/06 03:11:04;;;;;;;1.63;1.00;;;17.00;57.90;;;;;;5080451;28;20219;-49
2021/10/06 03:13:30;;;;;;;1.77;1.30;;;16.90;58.40;;;;;;5074994;28;20302;-46
2021/10/06 03:16:01;;;;;;;2.20;0.83;;;16.90;58.40;;;;;;5079030;28;20200;-47
2021/10/06 03:18:27;;;;;;;2.53;1.07;;;16.80;58.20;;;;;;5074385;28;20446;-49
2021/10/06 03:20:53;;;;;;;2.60;1.00;;;16.90;58.50;;;;;;5078808;28;20433;-45
2021/10/06 03:23:19;;;;;;;1.03;0.80;;;17.00;58.40;;;;;;5082573;28;20787;-46
2021/10/06 03:25:45;;;;;;;1.03;0.77;;;16.90;58.20;;;;;;5085655;28;20463;-46
2021/10/06 03:28:11;;;;;;;2.63;1.37;;;16.90;58.30;;;;;;5076711;28;20275;-45
2021/10/06 03:30:36;;;;;;;2.67;1.27;;;16.90;58.20;;;;;;5078422;28;20534;-45
2021/10/06 03:33:03;;;;;;;1.23;0.80;;;17.00;58.20;;;;;;5087731;28;20185;-44
2021/10/06 03:35:28;;;;;;;0.80;0.80;;;16.90;58.10;;;;;;5085854;28;20240;-46
2021/10/06 03:37:55;;;;;;;1.07;0.87;;;16.90;58.20;;;;;;5078813;28;20429;-47
2021/10/06 03:40:22;;;;;;;1.07;0.97;;;16.80;58.10;;;;;;5073622;28;20196;-45
2021/10/06 03:42:48;;;;;;;2.00;0.90;;;16.90;58.30;;;;;;5089745;28;20849;-47
2021/10/06 03:45:14;;;;;;;2.07;1.20;;;16.80;58.30;;;;;;5082688;28;20441;-49
2021/10/06 03:47:41;;;;;;;4.93;1.17;;;16.80;58.90;;;;;;5071797;28;20438;-45
2021/10/06 03:50:08;;;;;;;2.53;1.00;;;16.90;58.20;;;;;;5077326;28;20481;-46
2021/10/06 03:52:34;;;;;;;4.03;1.40;;;16.90;58.00;;;;;;5078407;28;20456;-45
2021/10/06 03:55:00;;;;;;;2.30;1.10;;;16.80;57.90;;;;;;5074330;28;20786;-46
2021/10/06 03:57:26;;;;;;;0.90;0.87;;;16.90;58.00;;;;;;5075890;28;20237;-47
2021/10/06 03:59:52;;;;;;;1.60;0.90;;;16.90;57.90;;;;;;5073283;28;20192;-47
2021/10/06 04:02:17;;;;;;;1.80;0.80;;;17.00;57.90;;;;;;5083297;28;20453;-45
2021/10/06 04:04:43;;;;;;;6.80;0.90;;;17.00;57.80;;;;;;5084686;28;20875;-49
2021/10/06 04:07:09;;;;;;;3.20;0.97;;;17.00;57.70;;;;;;5081759;28;20742;-50
2021/10/06 04:09:34;;;;;;;1.10;1.00;;;17.00;57.70;;;;;;5073235;28;20191;-47
2021/10/06 04:12:00;;;;;;;1.53;1.10;;;16.90;57.60;;;;;;5081333;28;20207;-49
2021/10/06 04:14:25;;;;;;;0.90;0.90;;;16.80;57.60;;;;;;5070972;28;20209;-47
2021/10/06 04:16:51;;;;;;;3.47;0.97;;;16.90;57.70;;;;;;5077234;28;20267;-49
2021/10/06 04:19:17;;;;;;;2.57;1.13;;;16.80;57.40;;;;;;5077127;28;20289;-50
2021/10/06 04:21:42;;;;;;;1.60;1.10;;;16.90;57.60;;;;;;5081251;28;20278;-46
2021/10/06 04:24:08;;;;;;;1.60;0.83;;;16.90;58.00;;;;;;5083237;28;20195;-45
2021/10/06 04:26:33;;;;;;;0.70;0.70;;;16.90;57.70;;;;;;5084517;28;20943;-49
2021/10/06 04:28:59;;;;;;;2.30;1.03;;;17.00;57.60;;;;;;5077040;28;20272;-46
2021/10/06 04:31:25;;;;;;;1.37;1.10;;;16.90;57.50;;;;;;5072289;28;20235;-45
2021/10/06 04:33:51;;;;;;;1.23;1.13;;;16.90;57.40;;;;;;5080245;28;20192;-49
2021/10/06 04:36:17;;;;;;;3.37;0.80;;;16.70;57.50;;;;;;5076588;28;20275;-47
2021/10/06 04:38:42;;;;;;;1.63;1.20;;;16.70;57.80;;;;;;5087110;28;20841;-46
2021/10/06 04:41:09;;;;;;;1.07;0.97;;;16.70;58.00;;;;;;5082126;28;20220;-47
2021/10/06 04:43:34;;;;;;;2.03;1.13;;;16.70;57.90;;;;;;5079406;28;20192;-45
2021/10/06 04:46:00;;;;;;;2.27;1.00;;;16.70;57.90;;;;;;5082309;28;21063;-46
2021/10/06 04:48:26;;;;;;;5.80;1.17;;;16.60;57.70;;;;;;5088315;28;20198;-48
2021/10/06 04:50:51;;;;;;;0.90;0.77;;;16.60;57.80;;;;;;5085568;28;20232;-49
2021/10/06 04:53:17;;;;;;;2.30;1.00;;;16.60;58.10;;;;;;5078655;28;20192;-45
2021/10/06 04:55:43;;;;;;;4.43;1.07;;;16.60;57.90;;;;;;5088548;28;20191;-48
2021/10/06 04:58:09;;;;;;;1.37;0.77;;;16.60;57.90;;;;;;5087639;28;20505;-47
2021/10/06 05:00:35;;;;;;;1.20;1.10;;;16.60;57.90;;;;;;5088518;28;20528;-51
2021/10/06 05:03:12;;;;;;;3.87;0.70;;;16.50;58.00;;;;;;5090981;28;20199;-46
2021/10/06 05:05:39;;;;;;;1.13;0.60;;;16.50;58.20;;;;;;5080480;28;20833;-46
2021/10/06 05:08:05;;;;;;;2.03;0.80;;;16.50;58.00;;;;;;5079290;28;20491;-48
2021/10/06 05:10:31;;;;;;;5.13;1.10;;;16.60;58.70;;;;;;5079517;28;20489;-45
2021/10/06 05:12:57;;;;;;;1.37;0.80;;;16.60;57.80;;;;;;5087421;28;20445;-46
2021/10/06 05:15:23;;;;;;;2.10;0.80;;;16.40;57.60;;;;;;5076850;28;20202;-44
2021/10/06 05:17:48;;;;;;;0.90;0.90;;;16.30;57.90;;;;;;5079761;28;20918;-50
2021/10/06 05:20:14;;;;;;;1.13;1.00;;;16.40;58.00;;;;;;5081841;28;20537;-46
2021/10/06 05:22:40;;;;;;;1.73;0.83;;;16.40;57.70;;;;;;5075202;28;20870;-46
2021/10/06 05:25:06;;;;;;;5.43;1.23;;;16.40;57.70;;;;;;5078873;28;20187;-45
2021/10/06 05:27:33;;;;;;;1.20;0.80;;;16.40;57.80;;;;;;5080730;28;20199;-47
2021/10/06 05:29:59;;;;;;;3.90;1.20;;;16.50;57.80;;;;;;5074389;28;20497;-46
2021/10/06 05:32:25;;;;;;;1.50;1.10;;;16.40;57.60;;;;;;5083009;28;20511;-46
2021/10/06 05:34:50;;;;;;;2.20;1.10;;;16.40;57.50;;;;;;5085261;28;20937;-46
2021/10/06 05:37:16;;;;;;;0.90;0.80;;;16.30;57.50;;;;;;5077864;28;20196;-45
2021/10/06 05:39:42;;;;;;;1.10;0.77;;;16.20;57.60;;;;;;5084034;28;20329;-45
2021/10/06 05:42:07;;;;;;;2.53;1.20;;;16.20;57.70;;;;;;5076942;28;20198;-44
2021/10/06 05:44:33;;;;;;;1.40;0.80;;;16.10;58.10;;;;;;5077677;28;20659;-46
2021/10/06 05:46:59;;;;;;;0.80;0.80;;;16.00;58.00;;;;;;5085438;28;20184;-45
2021/10/06 05:49:25;;;;;;;2.87;0.80;;;16.10;58.20;;;;;;5082208;28;20278;-45
2021/10/06 05:51:50;;;;;;;7.37;1.20;;;16.20;57.80;;;;;;5080054;28;20228;-47
2021/10/06 05:54:16;;;;;;;3.53;1.23;;;16.10;57.60;;;;;;5090058;28;20321;-46
2021/10/06 05:56:42;;;;;;;3.17;1.03;;;16.20;57.70;;;;;;5089945;28;20196;-45
2021/10/06 05:59:07;;;;;;;2.10;1.07;;;16.10;57.60;;;;;;5091056;28;20195;-46
2021/10/06 06:01:33;;;;;;;5.60;1.07;;;16.20;57.60;;;;;;5081931;28;20581;-45
2021/10/06 06:03:58;;;;;;;1.40;0.70;;;16.30;57.50;;;;;;5086898;28;20601;-45
2021/10/06 06:06:24;;;;;;;1.73;1.10;;;16.40;57.40;;;;;;5082548;28;20723;-46
2021/10/06 06:08:50;;;;;;;2.43;1.17;;;16.40;57.30;;;;;;5089971;28;20192;-50
2021/10/06 06:11:15;;;;;;;2.00;1.10;;;16.50;57.20;;;;;;5083919;28;20219;-45
2021/10/06 06:13:41;;;;;;;2.57;1.10;;;16.60;56.90;;;;;;5087440;28;20209;-46
2021/10/06 06:16:07;;;;;;;1.37;1.00;;;16.50;56.90;;;;;;5089197;28;20200;-45
2021/10/06 06:18:33;;;;;;;2.60;1.13;;;16.40;57.10;;;;;;5090910;28;20274;-45
2021/10/06 06:20:59;;;;;;;2.73;1.07;;;16.50;57.10;;;;;;5090757;28;20209;-45
2021/10/06 06:23:26;;;;;;;2.40;1.10;;;16.40;57.00;;;;;;5085850;28;20278;-46
2021/10/06 06:25:51;;;;;;;2.30;1.00;;;16.40;57.10;;;;;;5091532;28;20516;-48
2021/10/06 06:28:18;;;;;;;1.70;1.50;;;16.40;57.30;;;;;;5088037;28;20548;-45
2021/10/06 06:30:44;;;;;;;3.03;1.30;;;16.20;57.50;;;;;;5080269;28;20258;-48
2021/10/06 06:33:10;;;;;;;1.60;1.00;;;16.20;57.70;;;;;;5083674;28;20478;-45
2021/10/06 06:35:36;;;;;;;2.93;1.30;;;16.10;57.60;;;;;;5091085;28;20201;-45
2021/10/06 06:38:01;;;;;;;2.07;1.10;;;16.20;57.80;;;;;;5086544;28;20191;-44
2021/10/06 06:40:27;;;;;;;2.00;0.90;;;16.30;57.80;;;;;;5090942;28;20222;-45
2021/10/06 06:42:53;;;;;;;2.30;1.23;;;16.30;57.70;;;;;;5087518;28;20627;-44
2021/10/06 06:45:18;;;;;;;2.47;1.60;;;16.40;57.70;;;;;;5084912;28;20199;-45
2021/10/06 06:47:44;;;;;;;2.80;1.27;;;16.40;57.60;;;;;;5086946;28;20203;-45
2021/10/06 06:50:12;;;;;;;7.13;1.20;;;16.30;57.50;;;;;;5084612;28;20226;-45
2021/10/06 06:52:39;;;;;;;1.93;1.03;;;16.20;57.60;;;;;;5089895;28;20206;-44
2021/10/06 06:55:05;;;;;;;4.30;1.23;;;16.30;57.50;;;;;;5082130;28;20441;-45
2021/10/06 06:57:31;;;;;;;2.50;1.13;;;16.20;57.50;;;;;;5087976;28;20946;-46
2021/10/06 06:59:57;;;;;;;2.53;1.10;;;16.20;57.50;;;;;;5088362;28;20429;-46
2021/10/06 07:02:23;;;;;;;3.13;1.30;;;16.10;57.70;;;;;;5086789;28;20294;-44
2021/10/06 07:04:49;;;;;;;2.30;1.37;;;16.20;57.70;;;;;;5091179;28;20976;-45
2021/10/06 07:07:15;;;;;;;1.73;0.90;;;16.20;57.50;;;;;;5087799;28;20698;-47
2021/10/06 07:09:48;;;;;;;1.20;0.90;;;16.20;57.20;;;;;;5081662;28;20202;-45
2021/10/06 07:12:20;;;;;;;3.03;0.90;;;16.20;57.30;;;;;;5084402;28;20507;-45
2021/10/06 07:14:47;;;;;;;1.60;0.93;;;16.30;57.40;;;;;;5087527;28;20972;-45
2021/10/06 07:17:16;;;;;;;1.67;1.10;;;16.30;57.20;;;;;;5086878;28;20450;-46
2021/10/06 07:19:42;;;;;;;5.10;0.90;;;16.30;57.10;;;;;;5089199;28;20433;-46
2021/10/06 07:22:08;;;;;;;2.20;1.17;;;16.30;56.90;;;;;;5087941;28;20437;-48
2021/10/06 07:24:34;;;;;;;2.03;1.20;;;16.30;56.90;;;;;;5081864;28;20253;-46
2021/10/06 07:27:01;;;;;;;2.23;1.20;;;16.20;56.80;;;;;;5086064;28;20460;-46
2021/10/06 07:29:27;;;;;;;7.07;1.03;;;16.20;57.30;;;;;;5075456;28;20954;-47
2021/10/06 07:31:53;;;;;;;1.70;1.30;;;16.40;57.10;;;;;;5077375;28;20448;-47
2021/10/06 07:34:18;;;;;;;1.80;0.93;;;16.40;57.10;;;;;;5076494;28;20434;-46
2021/10/06 07:36:44;;;;;;;3.83;1.20;;;16.40;56.70;;;;;;5083196;28;20191;-46
2021/10/06 07:39:10;;;;;;;1.90;1.00;;;16.40;56.80;;;;;;5086190;28;20870;-46
2021/10/06 07:41:36;;;;;;;3.53;1.33;;;16.50;56.40;;;;;;5076892;28;20216;-51
2021/10/06 07:44:02;;;;;;;3.43;1.10;;;16.50;56.60;;;;;;5075591;28;20462;-46
2021/10/06 07:46:28;;;;;;;1.93;0.90;;;16.70;56.40;;;;;;5073579;28;20200;-48
2021/10/06 07:48:54;;;;;;;1.77;1.00;;;16.90;56.10;;;;;;5084776;28;20441;-46
2021/10/06 07:51:20;;;;;;;2.53;1.00;;;17.00;55.70;;;;;;5089551;28;20520;-46
2021/10/06 07:53:48;;;;;;;1.60;0.93;;;17.20;55.60;;;;;;5077902;28;20191;-47
2021/10/06 07:56:15;;;;;;;3.27;1.30;;;17.30;54.90;;;;;;5081284;28;20430;-46
2021/10/06 07:58:41;;;;;;;7.33;1.37;;;17.30;54.90;;;;;;5082361;28;20445;-46
2021/10/06 08:01:08;;;;;;;2.73;1.00;;;17.10;54.20;;;;;;5084366;28;20502;-47
2021/10/06 08:03:34;;;;;;;1.87;0.93;;;17.10;53.90;;;;;;5087669;28;20230;-47
2021/10/06 08:06:00;;;;;;;3.20;1.20;;;17.20;54.40;;;;;;5073932;28;20861;-46
2021/10/06 08:08:29;;;;;;;7.43;1.90;;;17.20;53.70;;;;;;5076263;28;20199;-47
2021/10/06 08:10:56;;;;;;;4.17;1.23;;;17.20;54.10;;;;;;5090330;28;20480;-45
2021/10/06 08:13:22;;;;;;;2.40;1.20;;;17.10;53.70;;;;;;5086204;28;20825;-45
2021/10/06 08:15:49;;;;;;;2.53;1.13;;;17.10;53.90;;;;;;5090432;28;20437;-46
2021/10/06 08:18:16;;;;;;;4.50;1.50;;;17.20;53.60;;;;;;5086854;28;20430;-45
2021/10/06 08:20:44;;;;;;;3.80;1.40;;;17.10;53.90;;;;;;5086450;28;20438;-45
2021/10/06 08:23:10;;;;;;;4.73;1.40;;;17.10;53.80;;;;;;5082933;28;20433;-50
2021/10/06 08:25:36;;;;;;;3.70;1.77;;;17.10;53.90;;;;;;5080581;28;20433;-47
2021/10/06 08:28:01;;;;;;;2.80;1.40;;;17.20;53.90;;;;;;5088538;28;20460;-45
2021/10/06 08:30:28;;;;;;;3.17;1.77;;;17.20;53.60;;;;;;5086326;28;20220;-45
2021/10/06 08:32:55;;;;;;;6.57;1.20;;;17.10;53.00;;;;;;5087963;28;20226;-45
2021/10/06 08:35:20;;;;;;;2.17;1.10;;;17.00;52.80;;;;;;5083675;28;20837;-47
2021/10/06 08:37:46;;;;;;;2.40;1.23;;;16.80;53.30;;;;;;5093959;28;20437;-45
2021/10/06 08:40:12;;;;;;;2.40;1.23;;;17.00;53.40;;;;;;5094245;28;20222;-47
2021/10/06 08:42:39;;;;;;;3.07;1.10;;;17.20;52.80;;;;;;5094040;28;20262;-45
2021/10/06 08:45:09;;;;;;;2.50;1.10;;;17.20;52.50;;;;;;5093959;28;20516;-45
2021/10/06 08:47:39;;;;;;;4.30;1.33;;;17.20;52.70;;;;;;5090480;28;20433;-46
2021/10/06 08:50:09;;;;;;;2.43;1.20;;;17.10;52.70;;;;;;5090914;28;20502;-46
2021/10/06 08:52:34;;;;;;;2.10;1.17;;;17.00;52.70;;;;;;5077951;28;20475;-45
2021/10/06 08:55:05;;;;;;;3.10;1.40;;;16.80;53.50;;;;;;5073560;28;20462;-44
2021/10/06 08:57:31;;;;;;;1.90;1.10;;;16.90;55.80;;;;;;5073845;28;20819;-45
2021/10/06 08:59:57;;;;;;;4.03;1.50;;;17.20;56.70;;;;;;5092578;28;20568;-45
2021/10/06 09:02:23;;;;;;;4.23;1.23;;;17.20;56.70;;;;;;5093817;28;20437;-44
2021/10/06 09:04:49;;;;;;;3.37;1.10;;;17.50;56.70;;;;;;5089876;28;20436;-45
2021/10/06 09:07:15;;;;;;;2.80;1.20;;;17.50;56.20;;;;;;5088307;28;20624;-45
2021/10/06 09:09:41;;;;;;;5.30;1.23;;;17.40;56.60;;;;;;5086443;28;20429;-46
2021/10/06 09:12:15;;;;;;;1.90;1.30;;;17.60;57.90;;;;;;5082633;28;20456;-46
2021/10/06 09:14:43;;;;;;;3.33;1.40;;;17.90;57.90;;;;;;5087832;28;20203;-45
2021/10/06 09:17:17;;;;;;;2.23;0.80;;;18.00;58.10;;;;;;5087419;28;20481;-46
2021/10/06 09:19:46;;;;;;;4.80;1.03;;;18.10;58.00;;;;;;5070987;28;20421;-46
2021/10/06 09:22:16;;;;;;;3.17;1.30;;;18.20;58.10;;;;;;5080103;28;20916;-46
2021/10/06 09:24:56;;;;;;;3.43;1.57;;;18.30;58.30;;;;;;5083941;28;20524;-46
2021/10/06 09:27:28;;;;;;;3.13;1.37;;;18.20;57.60;;;;;;5083715;28;20437;-45
2021/10/06 09:29:57;;;;;;;3.23;1.03;;;18.00;56.40;;;;;;5087717;28;20480;-45
2021/10/06 09:32:34;;;;;;;1.87;1.00;;;17.90;58.40;;;;;;5087081;28;20449;-47
2021/10/06 09:35:13;;;;;;;4.83;1.37;;;17.80;57.20;;;;;;5080631;28;20445;-46
2021/10/06 09:37:42;;;;;;;1.47;1.17;;;17.90;55.80;;;;;;5090092;28;20442;-45
2021/10/06 09:40:11;;;;;;;2.90;1.50;;;18.10;55.70;;;;;;5084898;28;20433;-48
2021/10/06 09:42:48;;;;;;;4.07;1.60;;;18.20;55.40;;;;;;5088493;28;20777;-46
2021/10/06 09:45:23;;;;;;;2.63;1.40;;;17.90;54.80;;;;;;5085774;28;20901;-45
2021/10/06 09:48:13;;;;;;;2.27;1.17;;;18.10;56.30;;;;;;5086240;28;20435;-49
2021/10/06 09:50:47;;;;;;;2.83;1.20;;;18.30;54.70;;;;;;5089782;28;20485;-46
2021/10/06 09:53:17;;;;;;;3.70;1.20;;;18.60;54.80;;;;;;5080616;28;20445;-45
2021/10/06 09:55:48;;;;;;;2.00;1.10;;;18.60;53.20;;;;;;5086763;28;20444;-45
2021/10/06 09:58:15;;;;;;;4.20;1.00;;;18.40;52.20;;;;;;5086331;28;20941;-45
2021/10/06 10:00:43;;;;;;;2.27;1.20;;;18.40;53.00;;;;;;5085458;28;20445;-46
2021/10/06 10:03:08;;;;;;;3.43;1.23;;;18.60;53.30;;;;;;5085802;28;20542;-46
2021/10/06 10:05:36;;;;;;;1.70;1.27;;;18.70;53.00;;;;;;5089681;28;20580;-45
2021/10/06 10:08:03;;;;;;;5.30;1.40;;;18.80;52.70;;;;;;5078757;28;20195;-45
2021/10/06 10:10:32;;;;;;;4.53;1.50;;;18.70;51.30;;;;;;5082005;28;20859;-46
2021/10/06 10:12:58;;;;;;;2.03;1.00;;;18.60;51.20;;;;;;5083231;28;20422;-46
2021/10/06 10:15:24;;;;;;;2.77;1.10;;;18.70;51.60;;;;;;5081667;28;20936;-45
2021/10/06 10:18:01;;;;;;;6.47;1.20;;;18.70;51.50;;;;;;5091658;28;20464;-50
2021/10/06 10:20:31;;;;;;;3.00;1.47;;;18.80;51.40;;;;;;5072169;28;20199;-47
2021/10/06 10:22:59;;;;;;;2.80;1.10;;;18.90;51.80;;;;;;5077719;28;20776;-48
2021/10/06 10:25:30;;;;;;;1.73;1.30;;;19.00;52.50;;;;;;5082432;28;20525;-46
2021/10/06 10:28:18;;;;;;;4.00;1.50;;;19.00;53.60;;;;;;5077725;28;20472;-48
2021/10/06 10:30:55;;;;;;;1.47;0.83;;;18.40;53.60;;;;;;5083128;28;20485;-45
2021/10/06 10:33:55;;;;;;;0.87;0.87;;;18.00;51.50;;;;;;5088316;28;20449;-45
2021/10/06 10:36:29;;;;;;;4.20;1.07;;;18.00;54.20;;;;;;5046253;28;20865;-47
2021/10/06 10:38:56;;;;;;;3.23;0.83;;;18.20;55.40;;;;;;5082986;28;20433;-48
2021/10/06 10:41:41;;;;;;;3.20;1.10;;;18.30;55.80;;;;;;5089723;28;20457;-46
2021/10/06 10:44:07;;;;;;;2.13;1.00;;;18.40;56.10;;;;;;5089329;28;20880;-46
2021/10/06 10:46:55;;;;;;;3.10;2.60;;;18.50;55.20;;;;;;5090092;28;20445;-46
2021/10/06 10:49:21;;;;;;;2.20;0.97;;;18.60;54.40;;;;;;5073618;28;20430;-46
2021/10/06 10:51:52;;;;;;;1.50;0.90;;;18.60;54.60;;;;;;5080345;28;20485;-49
2021/10/06 10:54:39;;;;;;;1.53;0.93;;;18.70;57.10;;;;;;5073483;28;20192;-49
2021/10/06 10:57:28;;;;;;;1.80;1.00;;;18.80;58.20;;;;;;5088633;28;20472;-48
2021/10/06 10:59:56;;;;;;;2.17;0.90;;;18.90;57.60;;;;;;5087491;28;20468;-46
2021/10/06 11:02:27;;;;;;;3.33;1.20;;;19.10;59.70;;;;;;5077411;28;20936;-46
2021/10/06 11:05:11;;;;;;;5.33;1.27;;;19.40;59.60;;;;;;5084542;28;20917;-50
2021/10/06 11:07:50;;;;;;;1.80;0.80;;;19.70;56.80;;;;;;5090602;28;20436;-45
2021/10/06 11:10:17;;;;;;;1.80;1.23;;;19.90;54.80;;;;;;5088717;28;20477;-49
2021/10/06 11:13:03;;;;;;;4.00;1.20;;;20.00;54.00;;;;;;5091482;28;20437;-49
2021/10/06 11:15:30;;;;;;;3.53;1.10;;;20.10;53.40;;;;;;5082746;28;20440;-48
2021/10/06 11:18:10;;;;;;;1.83;1.20;;;20.20;54.20;;;;;;5080157;28;20426;-49
2021/10/06 11:20:52;;;;;;;2.47;1.30;;;20.30;53.50;;;;;;5077961;28;20525;-47
2021/10/06 11:23:29;;;;;;;3.90;1.00;;;20.20;52.80;;;;;;5083671;28;20831;-51
2021/10/06 11:25:55;;;;;;;1.37;1.20;;;20.10;53.00;;;;;;5081777;28;20849;-48
2021/10/06 11:28:21;;;;;;;2.50;1.10;;;20.20;53.00;;;;;;5083701;28;20509;-47
2021/10/06 11:30:54;;;;;;;2.13;0.97;;;19.90;53.60;;;;;;5077993;28;20979;-51
2021/10/06 11:33:30;;;;;;;1.90;1.10;;;19.80;54.00;;;;;;5088329;28;21320;-50
2021/10/06 11:36:12;;;;;;;1.63;1.47;;;19.80;52.80;;;;;;5084436;28;20861;-50
2021/10/06 11:38:39;;;;;;;2.60;1.00;;;19.70;53.60;;;;;;5072595;28;20445;-46
2021/10/06 11:41:05;;;;;;;3.23;0.80;;;19.80;51.90;;;;;;5083503;28;20505;-51
2021/10/06 11:43:42;;;;;;;1.50;1.10;;;20.00;52.00;;;;;;5080005;28;20512;-51
2021/10/06 11:46:12;;;;;;;1.97;1.00;;;20.00;51.20;;;;;;5082024;28;20516;-49
2021/10/06 11:48:38;;;;;;;4.10;1.27;;;20.00;50.40;;;;;;5090202;28;20525;-47
2021/10/06 11:51:03;;;;;;;5.00;1.27;;;20.10;50.80;;;;;;5090248;28;20911;-45
2021/10/06 11:53:44;;;;;;;1.43;0.80;;;20.20;51.50;;;;;;5083573;28;20204;-48
2021/10/06 11:56:09;;;;;;;1.90;0.90;;;20.30;51.30;;;;;;5081744;28;20249;-45
2021/10/06 11:58:37;;;;;;;2.73;1.10;;;20.30;51.10;;;;;;5080183;28;20417;-46
2021/10/06 12:01:04;;;;;;;5.30;1.07;;;20.30;51.30;;;;;;5086301;28;20631;-48
2021/10/06 12:03:38;;;;;;;1.63;0.70;;;20.50;53.80;;;;;;5082931;28;20441;-49
2021/10/06 12:06:06;;;;;;;2.53;1.30;;;20.70;53.10;;;;;;5077597;28;20491;-50
2021/10/06 12:08:33;;;;;;;5.00;1.13;;;20.80;51.60;;;;;;5083853;28;20440;-50
2021/10/06 12:10:59;;;;;;;1.43;0.87;;;20.90;50.50;;;;;;5070447;28;20484;-49
2021/10/06 12:13:41;;;;;;;1.60;1.03;;;21.00;50.10;;;;;;5078982;28;20536;-46
2021/10/06 12:16:39;;;;;;;3.03;2.00;;;21.10;50.90;;;;;;5090244;28;20195;-49
2021/10/06 12:19:04;;;;;;;1.43;1.10;;;21.10;50.30;;;;;;5024571;28;20502;-49
2021/10/06 12:21:31;;;;;;;1.37;1.07;;;21.20;50.00;;;;;;5071034;28;20450;-50
2021/10/06 12:24:02;;;;;;;1.63;1.00;;;21.40;49.30;;;;;;5075163;28;20392;-49
2021/10/06 12:26:34;;;;;;;1.60;1.23;;;21.40;47.40;;;;;;5071676;28;20941;-51
2021/10/06 12:29:04;;;;;;;2.03;1.00;;;21.40;47.30;;;;;;5086438;28;20484;-50
2021/10/06 12:31:32;;;;;;;1.83;1.03;;;21.30;47.30;;;;;;5072916;28;20560;-48
2021/10/06 12:34:06;;;;;;;3.00;1.20;;;21.20;47.90;;;;;;5078152;28;20441;-50
2021/10/06 12:36:33;;;;;;;1.43;1.00;;;21.20;49.00;;;;;;5070684;28;20433;-51
2021/10/06 12:38:59;;;;;;;1.13;0.97;;;21.10;48.00;;;;;;5075483;28;21107;-47
2021/10/06 12:41:36;;;;;;;4.73;1.20;;;21.00;49.10;;;;;;5070484;28;20433;-50
2021/10/06 12:44:02;;;;;;;2.00;1.00;;;20.60;47.10;;;;;;5072332;28;20438;-50
2021/10/06 12:46:28;;;;;;;1.73;0.80;;;19.50;47.20;;;;;;5070567;28;20419;-49
2021/10/06 12:48:57;;;;;;;1.27;0.90;;;19.00;48.10;;;;;;5070840;28;20449;-49
2021/10/06 12:51:23;;;;;;;1.13;0.70;;;18.50;51.50;;;;;;5079765;28;20254;-46